createdAt,value
2023-02-14T00:08:35.889Z,13.13
2023-02-14T00:14:02.006Z,12.87
2023-02-14T00:19:06.435Z,11.88
2023-02-14T00:24:13.317Z,13.45
2023-02-14T00:29:21.178Z,12.10
2023-02-14T00:34:27.816Z,12.25
2023-02-14T00:39:32.527Z,11.50
2023-02-14T00:44:38.445Z,11.25
2023-02-14T00:49:43.162Z,12.15
2023-02-14T00:54:47.733Z,10.70
2023-02-14T00:59:53.822Z,10.13
2023-02-14T01:04:58.651Z,10.57
2023-02-14T01:10:03.113Z,9.73
2023-02-14T01:15:10.563Z,9.70
2023-02-14T01:20:15.932Z,9.52
2023-02-14T01:25:20.503Z,9.88
2023-02-14T01:30:27.139Z,8.98
2023-02-14T01:35:31.956Z,8.93
2023-02-14T01:40:36.415Z,8.73
2023-02-14T01:45:43.807Z,9.23
2023-02-14T01:50:50.712Z,8.80
2023-02-14T01:56:03.942Z,9.07
2023-02-14T02:01:10.153Z,8.40
2023-02-14T02:06:18.160Z,8.52
2023-02-14T02:11:22.695Z,8.85
2023-02-14T02:16:48.756Z,7.88
2023-02-14T02:22:21.633Z,8.52
2023-02-14T02:28:02.705Z,9.70
2023-02-14T02:33:49.622Z,8.27
2023-02-14T02:39:11.837Z,8.82
2023-02-14T02:44:20.817Z,8.43
2023-02-14T02:49:57.737Z,9.25
2023-02-14T02:55:09.194Z,8.63
2023-02-14T03:00:16.521Z,8.00
2023-02-14T03:05:21.437Z,9.07
2023-02-14T03:10:33.531Z,8.70
2023-02-14T03:15:54.158Z,7.75
2023-02-14T03:21:06.232Z,8.57
2023-02-14T03:26:17.742Z,7.78
2023-02-14T03:31:31.310Z,7.25
2023-02-14T03:36:42.547Z,8.20
2023-02-14T03:41:54.628Z,7.65
2023-02-14T03:47:02.422Z,7.35
2023-02-14T03:52:11.183Z,7.25
2023-02-14T03:57:22.248Z,8.73
2023-02-14T04:02:35.555Z,7.78
2023-02-14T04:07:49.273Z,7.95
2023-02-14T04:12:58.759Z,8.63
2023-02-14T04:18:38.542Z,9.32
2023-02-14T04:23:46.567Z,8.43
2023-02-14T04:28:55.811Z,8.50
2023-02-14T04:34:03.859Z,9.68
2023-02-14T04:39:11.661Z,8.98
2023-02-14T04:44:21.011Z,10.18
2023-02-14T04:49:29.549Z,9.02
2023-02-14T04:54:37.654Z,8.88
2023-02-14T04:59:47.072Z,8.80
2023-02-14T05:04:54.801Z,9.77
2023-02-14T05:10:02.616Z,9.80
2023-02-14T05:15:12.566Z,10.30
2023-02-14T05:20:20.316Z,9.10
2023-02-14T05:25:29.517Z,9.77
2023-02-14T05:30:40.006Z,9.05
2023-02-14T05:35:48.190Z,9.93
2023-02-14T05:40:56.117Z,10.82
2023-02-14T05:46:05.633Z,10.38
2023-02-14T05:51:14.417Z,11.02
2023-02-14T05:56:21.215Z,10.52
2023-02-14T06:01:29.824Z,12.45
2023-02-14T06:06:37.603Z,13.23
2023-02-14T06:11:45.683Z,12.52
2023-02-14T06:16:55.041Z,19.98
2023-02-14T06:22:02.806Z,11.35
2023-02-14T06:27:09.029Z,12.25
2023-02-14T06:32:17.968Z,13.43
2023-02-14T06:37:26.104Z,10.80
2023-02-14T06:42:33.786Z,13.25
2023-02-14T06:47:43.116Z,12.60
2023-02-14T06:52:51.809Z,12.23
2023-02-14T06:57:59.509Z,14.52
2023-02-14T07:03:06.954Z,14.18
2023-02-14T07:08:14.438Z,14.52
2023-02-14T07:13:21.689Z,12.90
2023-02-14T07:18:30.236Z,15.00
2023-02-14T07:23:37.062Z,11.90
2023-02-14T07:28:45.180Z,12.95
2023-02-14T07:33:54.935Z,12.98
2023-02-14T07:39:01.560Z,11.82
2023-02-14T07:44:08.732Z,11.43
2023-02-14T07:49:17.709Z,12.02
2023-02-14T07:54:26.119Z,11.98
2023-02-14T07:59:33.598Z,12.07
2023-02-14T08:04:42.539Z,11.48
2023-02-14T08:09:50.097Z,13.18
2023-02-14T08:15:16.833Z,11.00
2023-02-14T08:20:25.339Z,13.02
2023-02-14T08:25:33.138Z,12.63
2023-02-14T08:30:40.964Z,12.20
2023-02-14T08:35:50.697Z,11.63
2023-02-14T08:41:05.114Z,12.57
2023-02-14T08:46:15.567Z,12.18
2023-02-14T08:51:26.729Z,11.50
2023-02-14T08:56:34.583Z,11.35
2023-02-14T09:01:45.368Z,12.15
2023-02-14T09:06:54.784Z,11.75
2023-02-14T09:12:06.865Z,12.77
2023-02-14T09:17:16.008Z,12.85
2023-02-14T09:22:25.091Z,16.55
2023-02-14T09:27:33.170Z,15.38
2023-02-14T09:32:41.758Z,12.98
2023-02-14T09:38:10.362Z,12.60
2023-02-14T09:43:25.284Z,11.32
2023-02-14T09:48:42.049Z,12.80
2023-02-14T09:53:57.437Z,12.57
2023-02-14T09:59:12.325Z,13.45
2023-02-14T10:04:29.250Z,11.77
2023-02-14T10:10:02.399Z,11.35
2023-02-14T10:15:18.010Z,11.70
2023-02-14T10:20:30.733Z,12.50
2023-02-14T10:25:47.393Z,10.55
2023-02-14T10:31:05.637Z,11.48
2023-02-14T10:36:22.719Z,10.65
2023-02-14T10:41:42.003Z,10.25
2023-02-14T10:46:57.422Z,10.23
2023-02-14T10:52:14.730Z,11.47
2023-02-14T10:57:29.028Z,10.18
2023-02-14T11:02:40.389Z,11.43
2023-02-14T11:07:46.608Z,10.52
2023-02-14T11:12:53.485Z,11.40
2023-02-14T11:18:19.037Z,11.30
2023-02-14T11:28:37.413Z,9.65
2023-02-14T11:33:51.370Z,10.60
2023-02-14T11:39:09.487Z,10.13
2023-02-14T11:44:23.232Z,11.15
2023-02-14T11:49:34.137Z,11.32
2023-02-14T11:54:45.402Z,10.23
2023-02-14T11:59:57.173Z,9.38
2023-02-14T12:05:08.014Z,9.75
2023-02-14T12:10:28.983Z,9.85
2023-02-14T12:15:41.024Z,11.05
2023-02-14T12:20:56.742Z,9.80
2023-02-14T12:31:14.814Z,9.75
2023-02-14T12:36:36.533Z,11.05
2023-02-14T12:41:51.784Z,10.20
2023-02-14T12:47:11.478Z,10.85
2023-02-14T12:52:37.233Z,10.35
2023-02-14T13:03:23.268Z,10.77
2023-02-14T13:09:02.042Z,10.18
2023-02-14T13:14:24.307Z,10.80
2023-02-14T13:19:44.569Z,10.40
2023-02-14T13:24:55.320Z,10.77
2023-02-14T13:30:05.161Z,9.80
2023-02-14T13:35:20.635Z,10.00
2023-02-14T13:40:30.679Z,10.10
2023-02-14T13:46:08.040Z,10.00
2023-02-14T13:51:15.613Z,9.68
2023-02-14T13:56:43.472Z,10.43
2023-02-14T14:01:52.157Z,10.85
2023-02-14T14:07:23.840Z,13.57
2023-02-14T14:12:44.629Z,12.18
2023-02-14T14:18:11.072Z,12.20
2023-02-14T14:23:39.030Z,13.93
2023-02-14T14:28:49.113Z,13.65
2023-02-14T14:34:01.329Z,14.55
2023-02-14T14:39:11.938Z,11.05
2023-02-14T14:44:18.104Z,13.85
2023-02-14T14:54:33.132Z,16.42
2023-02-14T14:59:40.317Z,13.35
2023-02-14T15:04:46.134Z,14.68
2023-02-14T15:15:00.958Z,16.70
2023-02-14T15:20:11.940Z,16.10
2023-02-14T15:25:22.248Z,15.35
2023-02-14T15:30:34.046Z,17.52
2023-02-14T15:35:44.422Z,15.82
2023-02-14T15:40:55.045Z,17.50
2023-02-14T15:46:17.586Z,19.08
2023-02-14T15:51:27.998Z,20.83
2023-02-14T15:56:39.212Z,18.33
2023-02-14T16:01:53.262Z,19.00
2023-02-14T16:07:09.670Z,21.52
2023-02-14T16:12:33.914Z,18.13
2023-02-14T16:17:40.286Z,19.08
2023-02-14T16:27:51.360Z,21.27
2023-02-14T16:32:57.269Z,22.52
2023-02-14T16:43:07.487Z,22.27
2023-02-14T16:53:27.338Z,24.77
2023-02-14T16:58:36.327Z,27.63
2023-02-14T17:03:44.762Z,24.35
2023-02-14T17:08:52.866Z,24.42
2023-02-14T17:13:59.348Z,25.23
2023-02-14T17:19:04.628Z,26.65
2023-02-14T17:24:10.632Z,24.75
2023-02-14T17:29:16.992Z,25.00
2023-02-14T17:34:21.661Z,25.83
2023-02-14T17:39:26.260Z,27.73
2023-02-14T17:44:36.014Z,27.58
2023-02-14T17:49:41.996Z,24.00
2023-02-14T17:59:52.356Z,23.40
2023-02-14T18:04:57.902Z,20.50
2023-02-14T18:15:09.416Z,19.35
2023-02-14T18:20:14.352Z,20.48
2023-02-14T18:25:19.061Z,21.43
2023-02-14T18:30:25.531Z,20.83
2023-02-14T18:35:30.224Z,20.15
2023-02-14T18:40:35.219Z,19.98
2023-02-14T18:45:41.834Z,17.50
2023-02-14T18:50:47.650Z,19.33
2023-02-14T18:55:52.395Z,19.10
2023-02-14T19:00:59.371Z,21.10
2023-02-14T19:06:04.756Z,20.10
2023-02-14T19:11:12.107Z,20.37
2023-02-14T19:16:20.716Z,20.80
2023-02-14T19:21:28.229Z,20.80
2023-02-14T19:26:35.069Z,18.02
2023-02-14T19:31:43.521Z,20.25
2023-02-14T19:36:49.116Z,18.95
2023-02-14T19:41:53.794Z,20.98
2023-02-14T19:47:04.204Z,19.02
2023-02-14T19:52:25.798Z,20.67
2023-02-14T19:57:31.130Z,22.45
2023-02-14T20:02:37.280Z,20.48
2023-02-14T20:07:43.463Z,20.20
2023-02-14T20:17:53.681Z,16.67
2023-02-14T20:28:02.629Z,18.55
2023-02-14T20:33:08.788Z,20.23
2023-02-14T20:38:13.439Z,18.63
2023-02-14T20:43:17.986Z,19.85
2023-02-14T20:48:24.095Z,20.27
2023-02-14T20:53:29.363Z,20.77
2023-02-14T20:58:34.691Z,18.08
2023-02-14T21:03:41.793Z,24.10
2023-02-14T21:08:46.667Z,23.98
2023-02-14T21:13:52.147Z,18.40
2023-02-14T21:19:00.314Z,19.40
2023-02-14T21:24:06.776Z,18.98
2023-02-14T21:29:11.594Z,19.50
2023-02-14T21:34:18.043Z,20.27
2023-02-14T21:39:27.554Z,24.25
2023-02-14T21:44:49.300Z,23.52
2023-02-14T21:50:12.240Z,16.60
2023-02-14T21:55:17.632Z,19.63
2023-02-14T22:00:23.541Z,20.45
2023-02-14T22:05:29.532Z,18.95
2023-02-14T22:10:33.853Z,18.70
2023-02-14T22:15:41.549Z,20.10
2023-02-14T22:20:47.986Z,19.08
2023-02-14T22:25:52.561Z,20.88
2023-02-14T22:31:01.243Z,20.80
2023-02-14T22:36:08.554Z,17.35
2023-02-14T22:41:15.410Z,18.85
2023-02-14T22:46:21.963Z,20.40
2023-02-14T22:51:30.925Z,21.90
2023-02-14T22:56:38.809Z,21.40
2023-02-14T23:01:43.419Z,19.50
2023-02-14T23:06:50.282Z,21.42
2023-02-14T23:11:56.305Z,21.83
2023-02-14T23:22:22.060Z,18.10
2023-02-14T23:27:31.044Z,21.80
2023-02-14T23:32:35.478Z,19.80
2023-02-14T23:37:41.865Z,20.27
2023-02-14T23:42:46.211Z,22.38
2023-02-14T23:47:50.744Z,21.30
2023-02-14T23:52:57.523Z,19.00
2023-02-14T23:58:02.053Z,18.92
